createdAt,value
2022-09-15T00:00:52.295Z,18.56
2022-09-15T00:03:40.798Z,18.60
2022-09-15T00:06:14.673Z,18.62
2022-09-15T00:08:47.812Z,18.60
2022-09-15T00:11:24.356Z,18.50
2022-09-15T00:14:00.752Z,18.40
2022-09-15T00:16:35.173Z,18.40
2022-09-15T00:19:09.076Z,18.30
2022-09-15T00:21:44.228Z,18.30
2022-09-15T00:24:17.405Z,18.30
2022-09-15T00:26:50.587Z,18.28
2022-09-15T00:29:23.717Z,18.20
2022-09-15T00:31:56.939Z,18.10
2022-09-15T00:34:30.368Z,18.00
2022-09-15T00:37:03.809Z,18.00
2022-09-15T00:39:37.196Z,18.00
2022-09-15T00:42:16.905Z,18.00
2022-09-15T00:44:58.689Z,18.00
2022-09-15T00:47:38.221Z,18.00
2022-09-15T00:50:18.532Z,18.00
2022-09-15T00:52:57.959Z,18.00
2022-09-15T00:55:37.138Z,18.00
2022-09-15T00:58:16.019Z,17.94
2022-09-15T01:03:52.717Z,18.00
2022-09-15T01:06:32.592Z,18.00
2022-09-15T01:09:18.981Z,18.00
2022-09-15T01:11:52.961Z,18.00
2022-09-15T01:14:26.317Z,17.92
2022-09-15T01:20:48.324Z,17.84
2022-09-15T01:24:14.699Z,17.86
2022-09-15T01:27:40.438Z,17.90
2022-09-15T01:30:15.473Z,18.00
2022-09-15T01:33:13.396Z,18.00
2022-09-15T01:36:01.148Z,18.00
2022-09-15T01:38:48.615Z,18.00
2022-09-15T01:41:28.900Z,18.00
2022-09-15T01:44:09.793Z,17.90
2022-09-15T01:46:53.565Z,17.90
2022-09-15T01:49:31.509Z,17.90
2022-09-15T01:52:06.760Z,17.90
2022-09-15T01:54:49.245Z,17.90
2022-09-15T01:57:24.590Z,17.90
2022-09-15T01:59:58.986Z,17.90
2022-09-15T02:02:39.374Z,17.90
2022-09-15T02:05:21.749Z,17.92
2022-09-15T02:08:05.187Z,17.90
2022-09-15T02:10:46.357Z,17.90
2022-09-15T02:13:26.252Z,17.90
2022-09-15T02:16:04.986Z,17.90
2022-09-15T02:18:50.522Z,17.84
2022-09-15T02:21:29.828Z,17.80
2022-09-15T02:24:12.976Z,17.80
2022-09-15T02:26:51.196Z,17.78
2022-09-15T02:29:28.154Z,17.78
2022-09-15T02:32:07.572Z,17.70
2022-09-15T02:34:46.870Z,17.70
2022-09-15T02:37:22.986Z,17.70
2022-09-15T02:40:00.205Z,17.70
2022-09-15T02:42:35.480Z,17.70
2022-09-15T02:45:11.118Z,17.70
2022-09-15T02:47:44.201Z,17.70
2022-09-15T02:50:17.631Z,17.62
2022-09-15T02:52:50.789Z,17.60
2022-09-15T02:55:24.273Z,17.60
2022-09-15T02:57:57.492Z,17.60
2022-09-15T03:00:31.943Z,17.58
2022-09-15T03:03:05.183Z,17.50
2022-09-15T03:05:38.315Z,17.50
2022-09-15T03:08:11.711Z,17.50
2022-09-15T03:10:45.256Z,17.40
2022-09-15T03:13:18.501Z,17.30
2022-09-15T03:15:51.790Z,17.20
2022-09-15T03:18:24.976Z,17.10
2022-09-15T03:21:02.026Z,17.00
2022-09-15T03:23:35.690Z,17.00
2022-09-15T03:26:10.400Z,16.90
2022-09-15T03:28:43.878Z,16.80
2022-09-15T03:31:17.491Z,16.70
2022-09-15T03:33:50.969Z,16.60
2022-09-15T03:36:24.326Z,16.58
2022-09-15T03:38:59.112Z,16.50
2022-09-15T03:41:32.383Z,16.50
2022-09-15T03:44:05.894Z,16.50
2022-09-15T03:46:39.528Z,16.46
2022-09-15T03:49:12.736Z,16.40
2022-09-15T03:51:45.920Z,16.40
2022-09-15T03:54:19.624Z,16.40
2022-09-15T03:56:53.161Z,16.40
2022-09-15T03:59:26.394Z,16.40
2022-09-15T04:01:59.670Z,16.30
2022-09-15T04:04:32.869Z,16.30
2022-09-15T04:07:06.036Z,16.22
2022-09-15T04:09:39.162Z,16.20
2022-09-15T04:12:12.412Z,16.20
2022-09-15T04:14:46.881Z,16.20
2022-09-15T04:17:20.095Z,16.20
2022-09-15T04:19:53.302Z,16.20
2022-09-15T04:22:27.724Z,16.20
2022-09-15T04:25:00.931Z,16.20
2022-09-15T04:27:36.372Z,16.22
2022-09-15T04:30:11.919Z,16.30
2022-09-15T04:32:45.399Z,16.30
2022-09-15T04:35:21.972Z,16.30
2022-09-15T04:37:56.559Z,16.30
2022-09-15T04:40:29.983Z,16.20
2022-09-15T04:43:03.135Z,16.16
2022-09-15T04:45:36.295Z,16.10
2022-09-15T04:48:09.538Z,16.04
2022-09-15T04:50:42.683Z,16.00
2022-09-15T04:53:15.857Z,16.00
2022-09-15T04:55:49.301Z,16.00
2022-09-15T04:58:22.509Z,15.98
2022-09-15T05:00:55.793Z,16.00
2022-09-15T05:03:29.067Z,15.90
2022-09-15T05:06:02.384Z,15.90
2022-09-15T05:08:36.584Z,15.90
2022-09-15T05:11:13.135Z,16.00
2022-09-15T05:13:47.182Z,16.00
2022-09-15T05:16:31.581Z,16.00
2022-09-15T05:19:06.195Z,16.12
2022-09-15T05:21:40.393Z,16.28
2022-09-15T05:24:14.673Z,16.40
2022-09-15T05:26:48.535Z,16.46
2022-09-15T05:29:21.850Z,16.50
2022-09-15T05:31:55.293Z,16.50
2022-09-15T05:34:28.630Z,16.50
2022-09-15T05:37:02.430Z,16.50
2022-09-15T05:39:35.597Z,16.60
2022-09-15T05:42:10.046Z,16.60
2022-09-15T05:44:43.237Z,16.60
2022-09-15T05:47:17.050Z,16.66
2022-09-15T05:49:50.295Z,16.62
2022-09-15T05:52:23.573Z,16.70
2022-09-15T05:54:59.102Z,16.70
2022-09-15T05:57:33.409Z,16.70
2022-09-15T06:00:09.149Z,16.80
2022-09-15T06:03:13.585Z,16.90
2022-09-15T06:05:47.960Z,17.00
2022-09-15T06:08:21.225Z,17.00
2022-09-15T06:10:54.581Z,17.04
2022-09-15T06:13:27.923Z,17.08
2022-09-15T06:16:08.725Z,17.20
2022-09-15T06:18:43.245Z,17.30
2022-09-15T06:21:19.711Z,17.42
2022-09-15T06:23:57.784Z,17.50
2022-09-15T06:26:32.205Z,17.60
2022-09-15T06:29:07.664Z,17.70
2022-09-15T06:31:41.770Z,17.74
2022-09-15T06:34:15.663Z,17.70
2022-09-15T06:36:48.943Z,17.60
2022-09-15T06:39:22.393Z,17.60
2022-09-15T06:42:04.869Z,17.50
2022-09-15T06:44:40.925Z,17.60
2022-09-15T06:47:17.779Z,17.60
2022-09-15T06:49:50.988Z,17.60
2022-09-15T06:52:24.803Z,17.70
2022-09-15T06:54:58.365Z,17.80
2022-09-15T06:57:31.672Z,17.80
2022-09-15T07:00:06.773Z,17.80
2022-09-15T07:02:40.118Z,17.72
2022-09-15T07:05:13.629Z,17.74
2022-09-15T07:07:46.829Z,17.86
2022-09-15T07:10:20.566Z,17.90
2022-09-15T07:12:54.190Z,17.94
2022-09-15T07:15:27.555Z,18.00
2022-09-15T07:18:01.389Z,18.00
2022-09-15T07:20:35.611Z,18.00
2022-09-15T07:23:08.838Z,18.00
2022-09-15T07:25:45.328Z,18.00
2022-09-15T07:28:19.405Z,18.06
2022-09-15T07:31:25.620Z,18.10
2022-09-15T07:33:59.922Z,18.10
2022-09-15T07:36:35.226Z,18.14
2022-09-15T07:39:08.912Z,18.20
2022-09-15T07:41:44.408Z,18.30
2022-09-15T07:44:17.631Z,18.40
2022-09-15T07:46:50.964Z,18.50
2022-09-15T07:49:25.380Z,18.70
2022-09-15T07:51:58.659Z,18.80
2022-09-15T07:54:31.960Z,18.90
2022-09-15T07:57:06.577Z,19.00
2022-09-15T07:59:41.326Z,19.10
2022-09-15T08:02:21.095Z,19.10
2022-09-15T08:04:54.533Z,19.18
2022-09-15T08:07:27.834Z,19.20
2022-09-15T08:10:00.971Z,19.30
2022-09-15T08:12:34.335Z,19.30
2022-09-15T08:15:08.588Z,19.40
2022-09-15T08:17:41.709Z,19.40
2022-09-15T08:20:15.401Z,19.40
2022-09-15T08:22:48.575Z,19.50
2022-09-15T08:25:21.898Z,19.70
2022-09-15T08:27:56.605Z,19.80
2022-09-15T08:30:30.534Z,19.82
2022-09-15T08:33:03.699Z,19.80
2022-09-15T08:35:36.964Z,19.80
2022-09-15T08:38:10.128Z,19.80
2022-09-15T08:40:48.385Z,19.98
2022-09-15T08:43:28.552Z,20.20
2022-09-15T08:46:08.960Z,20.40
2022-09-15T08:48:49.778Z,20.50
2022-09-15T08:51:34.761Z,20.60
2022-09-15T08:54:18.024Z,20.60
2022-09-15T08:56:53.032Z,20.60
2022-09-15T08:59:35.704Z,20.70
2022-09-15T09:03:05.098Z,20.90
2022-09-15T09:05:54.260Z,21.20
2022-09-15T09:09:00.341Z,21.32
2022-09-15T09:11:55.791Z,21.30
2022-09-15T09:14:48.223Z,21.20
2022-09-15T09:17:39.376Z,21.20
2022-09-15T09:20:35.632Z,21.10
2022-09-15T09:23:16.438Z,21.10
2022-09-15T09:25:50.819Z,21.10
2022-09-15T09:28:37.626Z,21.10
2022-09-15T09:31:20.641Z,21.30
2022-09-15T09:34:11.616Z,21.50
2022-09-15T09:36:44.780Z,21.60
2022-09-15T09:39:18.703Z,21.62
2022-09-15T09:41:52.175Z,21.60
2022-09-15T09:44:32.104Z,21.60
2022-09-15T09:47:06.388Z,21.60
2022-09-15T09:49:48.055Z,21.60
2022-09-15T09:52:37.926Z,21.60
2022-09-15T09:55:27.088Z,21.70
2022-09-15T09:58:19.518Z,21.80
2022-09-15T10:00:53.155Z,22.00
2022-09-15T10:03:33.090Z,22.14
2022-09-15T10:06:13.477Z,22.40
2022-09-15T10:09:04.516Z,22.70
2022-09-15T10:11:51.503Z,23.06
2022-09-15T10:14:31.196Z,23.20
2022-09-15T10:17:11.167Z,23.30
2022-09-15T10:19:54.329Z,23.46
2022-09-15T10:22:34.953Z,23.70
2022-09-15T10:25:57.975Z,23.94
2022-09-15T10:28:31.325Z,24.08
2022-09-15T10:31:11.431Z,23.90
2022-09-15T10:33:47.823Z,23.60
2022-09-15T10:36:32.400Z,23.30
2022-09-15T10:39:19.438Z,23.10
2022-09-15T10:42:04.548Z,22.80
2022-09-15T10:44:50.142Z,22.32
2022-09-15T10:47:39.871Z,22.00
2022-09-15T10:50:25.174Z,21.80
2022-09-15T10:53:19.454Z,21.50
2022-09-15T10:56:04.560Z,21.30
2022-09-15T10:58:58.819Z,21.10
2022-09-15T11:02:13.325Z,21.00
2022-09-15T11:05:21.948Z,20.96
2022-09-15T11:08:24.420Z,21.12
2022-09-15T11:11:10.645Z,21.54
2022-09-15T11:14:00.358Z,21.90
2022-09-15T11:16:51.293Z,22.20
2022-09-15T11:19:51.277Z,22.40
2022-09-15T11:22:30.270Z,22.60
2022-09-15T11:25:18.752Z,22.76
2022-09-15T11:28:01.076Z,22.98
2022-09-15T11:30:47.552Z,23.20
2022-09-15T11:33:26.154Z,23.40
2022-09-15T11:36:04.727Z,23.50
2022-09-15T11:38:50.237Z,23.50
2022-09-15T11:44:41.562Z,23.30
2022-09-15T11:47:26.923Z,23.30
2022-09-15T11:50:07.082Z,23.20
2022-09-15T11:52:59.666Z,23.20
2022-09-15T11:55:39.323Z,23.32
2022-09-15T11:58:24.896Z,23.50
2022-09-15T12:01:04.174Z,23.50
2022-09-15T12:03:46.316Z,23.50
2022-09-15T12:06:27.171Z,24.06
2022-09-15T12:09:04.082Z,24.42
2022-09-15T12:11:44.181Z,25.24
2022-09-15T12:14:28.063Z,25.76
2022-09-15T12:17:04.959Z,26.00
2022-09-15T12:19:53.418Z,25.70
2022-09-15T12:22:39.054Z,25.70
2022-09-15T12:25:23.109Z,25.60
2022-09-15T12:28:41.281Z,25.30
2022-09-15T12:31:34.489Z,24.80
2022-09-15T12:34:37.177Z,24.40
2022-09-15T12:37:16.506Z,24.10
2022-09-15T12:39:51.218Z,23.90
2022-09-15T12:42:27.690Z,23.52
2022-09-15T12:45:06.128Z,23.30
2022-09-15T12:47:42.573Z,23.00
2022-09-15T12:50:30.590Z,22.80
2022-09-15T12:53:20.710Z,22.60
2022-09-15T12:55:58.670Z,22.50
2022-09-15T12:58:39.962Z,22.40
2022-09-15T13:01:49.719Z,22.30
2022-09-15T13:04:55.110Z,22.30
2022-09-15T13:07:58.910Z,22.20
2022-09-15T13:10:40.131Z,22.20
2022-09-15T13:13:38.470Z,22.10
2022-09-15T13:16:19.528Z,22.10
2022-09-15T13:19:09.722Z,22.00
2022-09-15T13:21:49.483Z,22.00
2022-09-15T13:24:30.472Z,21.94
2022-09-15T13:27:07.136Z,22.10
2022-09-15T13:29:50.103Z,22.34
2022-09-15T13:32:41.037Z,22.72
2022-09-15T13:35:39.168Z,22.96
2022-09-15T13:38:52.783Z,23.60
2022-09-15T13:42:07.026Z,24.36
2022-09-15T13:45:33.218Z,24.60
2022-09-15T13:48:32.100Z,24.72
2022-09-15T13:51:14.160Z,24.80
2022-09-15T13:53:52.019Z,24.50
2022-09-15T13:56:30.319Z,24.18
2022-09-15T13:59:14.142Z,23.80
2022-09-15T14:01:49.194Z,23.40
2022-09-15T14:04:27.917Z,23.00
2022-09-15T14:07:03.416Z,22.68
2022-09-15T14:09:45.403Z,22.40
2022-09-15T14:12:20.072Z,22.20
2022-09-15T14:14:58.147Z,22.00
2022-09-15T14:17:34.217Z,21.80
2022-09-15T14:20:25.330Z,21.64
2022-09-15T14:22:59.013Z,21.42
2022-09-15T14:25:32.888Z,21.24
2022-09-15T14:28:08.113Z,21.10
2022-09-15T14:30:47.886Z,20.96
2022-09-15T14:33:21.831Z,20.82
2022-09-15T14:35:55.736Z,20.72
2022-09-15T14:38:30.107Z,20.78
2022-09-15T14:41:03.182Z,20.90
2022-09-15T14:43:42.826Z,21.00
2022-09-15T14:46:19.249Z,21.10
2022-09-15T14:48:52.631Z,21.24
2022-09-15T14:51:33.006Z,21.40
2022-09-15T14:54:11.152Z,21.60
2022-09-15T14:56:47.305Z,21.84
2022-09-15T14:59:27.848Z,22.00
2022-09-15T15:02:18.089Z,22.30
2022-09-15T15:04:57.477Z,22.60
2022-09-15T15:07:35.936Z,22.76
2022-09-15T15:10:18.372Z,23.46
2022-09-15T15:12:57.262Z,24.16
2022-09-15T15:15:32.258Z,24.30
2022-09-15T15:18:38.348Z,24.00
2022-09-15T15:21:37.300Z,23.94
2022-09-15T15:24:23.418Z,24.06
2022-09-15T15:26:56.686Z,24.82
2022-09-15T15:29:47.091Z,25.20
2022-09-15T15:32:25.052Z,25.58
2022-09-15T15:35:03.073Z,26.00
2022-09-15T15:37:38.088Z,26.00
2022-09-15T15:40:20.968Z,25.80
2022-09-15T15:43:00.060Z,25.22
2022-09-15T15:45:36.497Z,24.70
2022-09-15T15:48:11.498Z,24.30
2022-09-15T15:50:44.737Z,24.00
2022-09-15T15:53:17.911Z,23.62
2022-09-15T15:55:52.056Z,23.24
2022-09-15T15:58:26.201Z,22.84
2022-09-15T16:01:00.674Z,22.50
2022-09-15T16:03:34.937Z,22.16
2022-09-15T16:06:10.940Z,22.00
2022-09-15T16:08:47.352Z,22.12
2022-09-15T16:11:28.291Z,22.40
2022-09-15T16:14:01.478Z,22.30
2022-09-15T16:16:34.932Z,22.10
2022-09-15T16:19:08.547Z,21.90
2022-09-15T16:21:45.757Z,21.60
2022-09-15T16:24:19.471Z,21.48
2022-09-15T16:26:53.914Z,21.20
2022-09-15T16:29:31.362Z,20.94
2022-09-15T16:32:07.098Z,20.70
2022-09-15T16:34:40.247Z,20.50
2022-09-15T16:37:13.407Z,20.30
2022-09-15T16:39:46.619Z,20.10
2022-09-15T16:42:20.040Z,20.00
2022-09-15T16:44:53.294Z,19.90
2022-09-15T16:47:26.569Z,19.80
2022-09-15T16:49:59.944Z,19.70
2022-09-15T16:52:33.101Z,19.60
2022-09-15T16:55:16.746Z,19.50
2022-09-15T16:57:49.973Z,19.46
2022-09-15T17:00:24.208Z,19.40
2022-09-15T17:02:57.436Z,19.30
2022-09-15T17:05:36.799Z,19.30
2022-09-15T17:08:12.304Z,19.20
2022-09-15T17:10:45.707Z,19.20
2022-09-15T17:13:25.053Z,19.10
2022-09-15T17:16:02.204Z,19.00
2022-09-15T17:18:35.557Z,18.90
2022-09-15T17:21:10.670Z,18.90
2022-09-15T17:23:47.907Z,18.80
2022-09-15T17:26:27.623Z,18.70
2022-09-15T17:29:04.471Z,18.70
2022-09-15T17:31:37.813Z,18.60
2022-09-15T17:34:15.520Z,18.58
2022-09-15T17:36:49.061Z,18.50
2022-09-15T17:39:22.274Z,18.40
2022-09-15T17:41:55.434Z,18.36
2022-09-15T17:44:28.771Z,18.30
2022-09-15T17:47:01.904Z,18.20
2022-09-15T17:49:35.295Z,18.20
2022-09-15T17:52:09.760Z,18.20
2022-09-15T17:54:42.896Z,18.14
2022-09-15T17:57:15.963Z,18.10
2022-09-15T17:59:49.094Z,18.10
2022-09-15T18:02:22.958Z,18.08
2022-09-15T18:04:56.537Z,18.00
2022-09-15T18:07:30.137Z,18.00
2022-09-15T18:10:03.335Z,18.00
2022-09-15T18:12:36.439Z,18.00
2022-09-15T18:15:16.030Z,17.90
2022-09-15T18:17:49.802Z,17.90
2022-09-15T18:20:26.392Z,17.90
2022-09-15T18:23:00.192Z,17.90
2022-09-15T18:25:36.899Z,17.82
2022-09-15T18:28:10.652Z,17.80
2022-09-15T18:30:46.182Z,17.80
2022-09-15T18:33:21.644Z,17.80
2022-09-15T18:35:58.971Z,17.70
2022-09-15T18:38:42.245Z,17.70
2022-09-15T18:41:15.482Z,17.70
2022-09-15T18:43:49.997Z,17.60
2022-09-15T18:46:23.295Z,17.60
2022-09-15T18:48:56.567Z,17.60
2022-09-15T18:51:50.534Z,17.60
2022-09-15T18:54:21.456Z,17.60
2022-09-15T18:56:54.603Z,17.60
2022-09-15T18:59:28.213Z,17.50
2022-09-15T19:02:01.742Z,17.40
2022-09-15T19:04:40.417Z,17.40
2022-09-15T19:07:14.278Z,17.30
2022-09-15T19:09:54.335Z,17.30
2022-09-15T19:12:29.805Z,17.30
2022-09-15T19:15:03.033Z,17.26
2022-09-15T19:17:36.548Z,17.20
2022-09-15T19:20:13.268Z,17.10
2022-09-15T19:22:47.527Z,17.10
2022-09-15T19:25:20.666Z,17.04
2022-09-15T19:27:53.827Z,17.00
2022-09-15T19:30:27.031Z,17.00
2022-09-15T19:33:00.257Z,16.90
2022-09-15T19:35:33.716Z,16.90
2022-09-15T19:38:06.927Z,16.80
2022-09-15T19:40:40.194Z,16.80
2022-09-15T19:43:13.482Z,16.80
2022-09-15T19:45:46.967Z,16.74
2022-09-15T19:48:20.139Z,16.70
2022-09-15T19:50:53.382Z,16.60
2022-09-15T19:53:26.930Z,16.60
2022-09-15T19:56:00.266Z,16.60
2022-09-15T19:58:39.157Z,16.56
2022-09-15T20:01:13.783Z,16.50
2022-09-15T20:06:45.369Z,16.40
2022-09-15T20:09:19.287Z,16.30
2022-09-15T20:11:52.427Z,16.30
2022-09-15T20:14:25.721Z,16.30
2022-09-15T20:17:01.147Z,16.30
2022-09-15T20:19:35.305Z,16.28
2022-09-15T20:22:08.539Z,16.20
2022-09-15T20:24:42.508Z,16.16
2022-09-15T20:27:15.637Z,16.10
2022-09-15T20:29:49.135Z,16.14
2022-09-15T20:35:13.154Z,16.20
2022-09-15T20:37:46.989Z,16.10
2022-09-15T20:40:20.308Z,16.10
2022-09-15T20:42:53.656Z,16.10
2022-09-15T20:45:27.139Z,16.10
2022-09-15T20:48:00.624Z,16.18
2022-09-15T20:50:35.232Z,16.20
2022-09-15T20:53:08.507Z,16.20
2022-09-15T20:55:41.658Z,16.20
2022-09-15T20:58:15.191Z,16.16
2022-09-15T21:00:48.464Z,16.20
2022-09-15T21:03:23.922Z,16.20
2022-09-15T21:06:03.570Z,16.20
2022-09-15T21:08:37.691Z,16.20
2022-09-15T21:11:12.500Z,16.20
2022-09-15T21:13:47.632Z,16.20
2022-09-15T21:16:23.561Z,16.20
2022-09-15T21:18:59.210Z,16.20
2022-09-15T21:21:34.608Z,16.20
2022-09-15T21:24:10.676Z,16.20
2022-09-15T21:26:58.748Z,16.10
2022-09-15T21:29:32.321Z,16.10
2022-09-15T21:32:06.068Z,16.10
2022-09-15T21:34:39.667Z,16.00
2022-09-15T21:37:12.874Z,16.00
2022-09-15T21:39:46.048Z,15.90
2022-09-15T21:42:19.635Z,15.90
2022-09-15T21:44:53.030Z,15.90
2022-09-15T21:47:26.224Z,15.86
2022-09-15T21:50:01.294Z,15.80
2022-09-15T21:52:38.247Z,15.80
2022-09-15T21:55:12.762Z,15.70
2022-09-15T21:57:46.094Z,15.70
2022-09-15T22:00:20.350Z,15.70
2022-09-15T22:02:56.276Z,15.60
2022-09-15T22:05:29.899Z,15.60
2022-09-15T22:08:05.142Z,15.50
2022-09-15T22:10:38.902Z,15.50
2022-09-15T22:13:14.474Z,15.50
2022-09-15T22:15:47.686Z,15.50
2022-09-15T22:18:20.968Z,15.42
2022-09-15T22:21:03.460Z,15.40
2022-09-15T22:23:36.827Z,15.40
2022-09-15T22:26:13.847Z,15.38
2022-09-15T22:28:49.124Z,15.38
2022-09-15T22:31:32.494Z,15.36
2022-09-15T22:34:05.977Z,15.40
2022-09-15T22:36:39.840Z,15.30
2022-09-15T22:39:26.985Z,15.30
2022-09-15T22:42:12.573Z,15.32
2022-09-15T22:44:46.181Z,15.40
2022-09-15T22:47:21.594Z,15.40
2022-09-15T22:49:58.822Z,15.40
2022-09-15T22:52:32.115Z,15.40
2022-09-15T22:55:05.705Z,15.42
2022-09-15T22:57:39.671Z,15.50
2022-09-15T23:00:16.304Z,15.54
2022-09-15T23:02:50.009Z,15.60
2022-09-15T23:05:23.136Z,15.60
2022-09-15T23:07:56.268Z,15.60
2022-09-15T23:10:30.750Z,15.60
2022-09-15T23:13:03.836Z,15.60
2022-09-15T23:15:38.373Z,15.62
2022-09-15T23:18:11.504Z,15.64
2022-09-15T23:20:45.358Z,15.70
2022-09-15T23:23:18.463Z,15.70
2022-09-15T23:25:51.601Z,15.70
2022-09-15T23:28:25.286Z,15.70
2022-09-15T23:30:59.843Z,15.74
2022-09-15T23:33:34.046Z,15.70
2022-09-15T23:36:11.812Z,15.70
2022-09-15T23:38:48.426Z,15.70
2022-09-15T23:41:22.301Z,15.70
2022-09-15T23:43:56.927Z,15.80
2022-09-15T23:46:30.193Z,15.80
2022-09-15T23:49:03.319Z,15.78
2022-09-15T23:51:36.477Z,15.70
2022-09-15T23:54:09.792Z,15.70
2022-09-15T23:56:43.406Z,15.70
2022-09-15T23:59:16.806Z,15.80
